Time;durP1;ratioP1;P1;durP2;ratioP2;P2;SDS_P1;SDS_P2;PMS_P1;PMS_P2;Temp;Humidity;BMP_temperature;BMP_pressure;BME280_temperature;BME280_humidity;BME280_pressure;Samples;Min_cycle;Max_cycle;Signal;HPM_P1;HPM_P2
2022/12/19 00:00:18;;;;;;;49.50;31.98;;;1.40;99.90;;;;;;5053377;28;20018;-68
2022/12/19 00:02:44;;;;;;;50.95;33.05;;;1.40;99.90;;;;;;5053303;28;20029;-62
2022/12/19 00:05:09;;;;;;;47.13;30.17;;;1.40;99.90;;;;;;5053291;28;20055;-67
2022/12/19 00:07:35;;;;;;;99.45;50.75;;;1.40;99.90;;;;;;5053030;28;20021;-66
2022/12/19 00:10:01;;;;;;;72.07;40.35;;;1.40;99.90;;;;;;5053178;28;20025;-68
2022/12/19 00:12:26;;;;;;;67.35;38.33;;;1.40;99.90;;;;;;5053237;28;20013;-66
2022/12/19 00:14:52;;;;;;;52.63;33.47;;;1.40;99.90;;;;;;5053240;28;20029;-65
2022/12/19 00:17:18;;;;;;;61.17;35.85;;;1.40;99.90;;;;;;5052852;28;20053;-65
2022/12/19 00:19:43;;;;;;;54.38;32.08;;;1.40;99.90;;;;;;5053339;28;20036;-65
2022/12/19 00:22:09;;;;;;;55.33;33.17;;;1.40;99.90;;;;;;5053079;28;20057;-61
2022/12/19 00:24:35;;;;;;;59.40;34.00;;;1.40;99.90;;;;;;5053107;28;20383;-66
2022/12/19 00:27:00;;;;;;;51.42;30.83;;;1.40;99.90;;;;;;5053014;28;20028;-62
2022/12/19 00:29:26;;;;;;;56.75;35.13;;;1.30;99.90;;;;;;5053063;28;20169;-63
2022/12/19 00:31:52;;;;;;;45.72;27.65;;;1.30;99.90;;;;;;5053129;28;20032;-66
2022/12/19 00:34:17;;;;;;;41.50;25.83;;;1.30;99.90;;;;;;5052990;28;20048;-63
2022/12/19 00:36:43;;;;;;;43.15;26.85;;;1.30;99.90;;;;;;5053046;28;20029;-68
2022/12/19 00:39:10;;;;;;;43.63;28.05;;;1.20;99.90;;;;;;5053050;28;20028;-63
2022/12/19 00:41:38;;;;;;;44.55;27.10;;;1.20;99.90;;;;;;5052974;28;20076;-63
2022/12/19 00:44:06;;;;;;;39.25;25.80;;;1.20;99.90;;;;;;5052962;28;20028;-61
2022/12/19 00:46:33;;;;;;;38.25;24.80;;;1.20;99.90;;;;;;5052937;28;20116;-64
2022/12/19 00:48:59;;;;;;;39.38;26.23;;;1.10;99.90;;;;;;5052743;28;20025;-64
2022/12/19 00:51:27;;;;;;;44.22;27.88;;;1.10;99.90;;;;;;5052824;28;20017;-65
2022/12/19 00:53:55;;;;;;;39.63;25.20;;;1.10;99.90;;;;;;5052915;28;20021;-63
2022/12/19 00:56:26;;;;;;;58.00;35.22;;;1.10;99.90;;;;;;5052770;28;20024;-62
2022/12/19 00:58:53;;;;;;;49.25;29.85;;;1.10;99.90;;;;;;5052874;28;20129;-66
2022/12/19 01:01:20;;;;;;;45.63;28.08;;;1.00;99.90;;;;;;5055306;28;20017;-65
2022/12/19 01:03:47;;;;;;;47.75;30.88;;;1.00;99.90;;;;;;5056552;28;20079;-64
2022/12/19 01:06:12;;;;;;;40.75;26.63;;;1.00;99.90;;;;;;5056585;28;20036;-63
2022/12/19 01:08:38;;;;;;;39.20;26.13;;;0.90;99.90;;;;;;5056631;28;20033;-63
2022/12/19 01:11:04;;;;;;;48.47;30.88;;;0.90;99.90;;;;;;5056467;28;20021;-66
2022/12/19 01:13:32;;;;;;;41.80;26.67;;;0.90;99.90;;;;;;5056636;28;20091;-65
2022/12/19 01:16:06;;;;;;;49.40;29.58;;;0.90;99.90;;;;;;5056394;28;20049;-67
2022/12/19 01:18:32;;;;;;;43.25;26.90;;;0.90;99.90;;;;;;5055981;28;20081;-66
2022/12/19 01:21:03;;;;;;;44.83;28.45;;;0.90;99.90;;;;;;5056150;28;20029;-67
2022/12/19 01:23:29;;;;;;;47.85;29.63;;;0.90;99.90;;;;;;5056230;28;20028;-63
2022/12/19 01:25:56;;;;;;;47.03;28.95;;;0.90;99.90;;;;;;5056216;28;20031;-61
2022/12/19 01:28:21;;;;;;;51.05;29.65;;;0.80;99.90;;;;;;5056431;28;20060;-65
2022/12/19 01:30:47;;;;;;;43.28;26.63;;;0.90;99.90;;;;;;5056223;28;20517;-64
2022/12/19 01:33:16;;;;;;;52.70;30.52;;;0.90;99.90;;;;;;5056002;28;20025;-64
2022/12/19 01:35:42;;;;;;;47.75;28.77;;;0.90;99.90;;;;;;5056149;28;20518;-63
2022/12/19 01:38:13;;;;;;;38.95;26.08;;;0.80;99.90;;;;;;5056016;28;20104;-65
2022/12/19 01:40:39;;;;;;;38.05;25.27;;;0.80;99.90;;;;;;5056176;28;20025;-63
2022/12/19 01:43:11;;;;;;;44.75;26.77;;;0.80;99.90;;;;;;5055945;28;20027;-65
2022/12/19 01:45:37;;;;;;;47.10;29.80;;;0.80;99.90;;;;;;5055990;28;20013;-65
2022/12/19 01:48:24;;;;;;;49.58;30.67;;;0.80;99.90;;;;;;5055653;28;20037;-66
2022/12/19 01:51:06;;;;;;;50.35;30.45;;;0.80;99.90;;;;;;5055670;28;20024;-62
2022/12/19 01:53:42;;;;;;;52.83;31.17;;;0.80;99.90;;;;;;5055873;28;20382;-67
2022/12/19 01:56:10;;;;;;;47.85;28.95;;;0.80;99.90;;;;;;5055708;28;20032;-64
2022/12/19 01:58:42;;;;;;;50.13;30.17;;;0.80;99.90;;;;;;5055555;28;20053;-63
2022/12/19 02:01:07;;;;;;;48.33;29.13;;;0.70;99.90;;;;;;5055686;28;20036;-63
2022/12/19 02:03:35;;;;;;;61.13;37.53;;;0.70;99.90;;;;;;5055419;28;20471;-60
2022/12/19 02:06:03;;;;;;;76.25;44.53;;;0.70;99.90;;;;;;5055365;28;20530;-63
2022/12/19 02:08:30;;;;;;;66.88;37.42;;;0.60;99.90;;;;;;5055305;28;20029;-67
2022/12/19 02:10:56;;;;;;;80.00;46.63;;;0.50;99.90;;;;;;5055075;28;20055;-66
2022/12/19 02:13:22;;;;;;;58.30;36.42;;;0.40;99.90;;;;;;5055325;28;20056;-63
2022/12/19 02:16:15;;;;;;;57.97;34.65;;;0.40;99.90;;;;;;5055325;28;20021;-63
2022/12/19 02:19:08;;;;;;;52.33;32.63;;;0.40;99.90;;;;;;5054824;28;20045;-64
2022/12/19 02:21:51;;;;;;;59.40;34.42;;;0.40;99.90;;;;;;5055119;28;20029;-62
2022/12/19 02:24:47;;;;;;;54.70;33.97;;;0.40;99.90;;;;;;5055110;28;20043;-62
2022/12/19 02:27:24;;;;;;;55.88;33.65;;;0.40;99.90;;;;;;5053814;28;20033;-63
2022/12/19 02:30:14;;;;;;;50.75;29.23;;;0.50;99.90;;;;;;5054990;28;20116;-63
2022/12/19 02:32:49;;;;;;;45.35;27.42;;;0.50;99.90;;;;;;5054855;28;20104;-62
2022/12/19 02:35:41;;;;;;;43.28;25.40;;;0.60;99.90;;;;;;5054909;28;20491;-65
2022/12/19 02:38:10;;;;;;;42.28;25.90;;;0.50;99.90;;;;;;5054971;28;20127;-65
2022/12/19 02:41:03;;;;;;;36.75;23.27;;;0.60;99.90;;;;;;5055040;28;20096;-63
2022/12/19 02:43:31;;;;;;;37.30;23.77;;;0.60;99.90;;;;;;5054873;28;20032;-65
2022/12/19 02:45:58;;;;;;;40.80;25.15;;;0.60;99.90;;;;;;5054678;28;20013;-62
2022/12/19 02:48:25;;;;;;;43.67;26.70;;;0.60;99.90;;;;;;5054628;28;20029;-62
2022/12/19 02:50:51;;;;;;;42.78;24.38;;;0.70;99.90;;;;;;5054667;28;20029;-64
2022/12/19 02:53:17;;;;;;;35.95;22.17;;;0.70;99.90;;;;;;5054795;28;20463;-63
2022/12/19 02:56:06;;;;;;;44.92;25.35;;;0.80;99.90;;;;;;5054879;28;20052;-63
2022/12/19 02:59:03;;;;;;;39.28;23.38;;;0.80;99.90;;;;;;5054436;28;20017;-65
2022/12/19 03:01:47;;;;;;;44.83;27.08;;;0.90;99.90;;;;;;5054269;28;20025;-68
2022/12/19 03:04:31;;;;;;;35.85;22.15;;;0.90;99.90;;;;;;5054423;28;20447;-65
2022/12/19 03:07:09;;;;;;;35.00;22.38;;;0.90;99.90;;;;;;5054289;28;20049;-66
2022/12/19 03:10:28;;;;;;;37.60;23.67;;;0.90;99.90;;;;;;5054316;28;20044;-65
2022/12/19 03:13:17;;;;;;;42.00;26.85;;;0.80;99.90;;;;;;5052180;28;20025;-63
2022/12/19 03:15:43;;;;;;;39.88;24.17;;;0.70;99.90;;;;;;5044308;28;20580;-63
2022/12/19 03:18:10;;;;;;;40.70;25.20;;;0.70;99.90;;;;;;5052834;28;20083;-67
2022/12/19 03:20:35;;;;;;;37.95;24.08;;;0.70;99.90;;;;;;5054040;28;20025;-64
2022/12/19 03:23:01;;;;;;;35.92;23.05;;;0.80;99.90;;;;;;5053272;28;20021;-67
2022/12/19 03:25:29;;;;;;;35.28;23.85;;;0.80;99.90;;;;;;5054172;28;20045;-60
2022/12/19 03:28:00;;;;;;;32.33;22.17;;;0.80;99.90;;;;;;5053793;28;20550;-63
2022/12/19 03:30:26;;;;;;;39.53;24.65;;;0.70;99.90;;;;;;5053672;28;20111;-60
2022/12/19 03:32:52;;;;;;;39.28;24.38;;;0.70;99.90;;;;;;5053885;28;20029;-64
2022/12/19 03:35:21;;;;;;;33.90;21.52;;;0.70;99.90;;;;;;5053708;28;20075;-64
2022/12/19 03:37:49;;;;;;;34.55;21.15;;;0.80;99.90;;;;;;5053780;28;20032;-65
2022/12/19 03:40:20;;;;;;;32.70;20.30;;;0.80;99.90;;;;;;5053901;28;20025;-65
2022/12/19 03:45:42;;;;;;;29.77;20.05;;;0.90;99.90;;;;;;5053542;28;20031;-60
2022/12/19 03:48:15;;;;;;;30.25;19.48;;;1.00;99.90;;;;;;5053458;28;20033;-64
2022/12/19 03:51:04;;;;;;;44.60;26.92;;;1.00;99.90;;;;;;5053699;28;20467;-68
2022/12/19 03:53:54;;;;;;;33.15;20.88;;;1.00;99.90;;;;;;5053577;28;20025;-63
2022/12/19 03:56:45;;;;;;;28.63;18.00;;;0.90;99.90;;;;;;5053446;28;20028;-64
2022/12/19 03:59:29;;;;;;;30.55;19.80;;;0.90;99.90;;;;;;5053478;28;20017;-68
2022/12/19 04:01:56;;;;;;;33.45;22.13;;;0.90;99.90;;;;;;5053441;28;20028;-63
2022/12/19 04:04:24;;;;;;;38.70;23.58;;;1.00;99.90;;;;;;5053370;28;20040;-62
2022/12/19 04:06:51;;;;;;;33.67;21.27;;;1.00;99.90;;;;;;5053221;28;20029;-62
2022/12/19 04:09:20;;;;;;;36.45;23.10;;;0.90;99.90;;;;;;5053354;28;20029;-65
2022/12/19 04:11:51;;;;;;;28.48;18.02;;;0.90;99.90;;;;;;5053566;28;20020;-66
2022/12/19 04:14:29;;;;;;;25.23;17.48;;;1.00;99.90;;;;;;5052982;28;20017;-64
2022/12/19 04:17:07;;;;;;;22.85;14.30;;;1.00;99.90;;;;;;5052925;28;20386;-64
2022/12/19 04:19:46;;;;;;;28.25;16.83;;;1.10;99.90;;;;;;5053118;28;20394;-64
2022/12/19 04:22:49;;;;;;;36.40;21.95;;;1.10;99.90;;;;;;5053236;28;20048;-64
2022/12/19 04:25:20;;;;;;;33.28;19.45;;;1.10;99.90;;;;;;5053133;28;20021;-65
2022/12/19 04:28:00;;;;;;;24.10;16.42;;;0.90;99.90;;;;;;5053072;28;20051;-62
2022/12/19 04:30:26;;;;;;;26.08;15.68;;;0.90;99.90;;;;;;5052890;28;20025;-64
2022/12/19 04:32:54;;;;;;;23.70;15.43;;;0.90;99.90;;;;;;5053128;28;20101;-67
2022/12/19 04:35:19;;;;;;;26.85;16.17;;;1.00;99.90;;;;;;5055621;28;20014;-64
2022/12/19 04:37:45;;;;;;;31.23;19.23;;;1.00;99.90;;;;;;5057287;28;20027;-60
2022/12/19 04:40:11;;;;;;;27.98;15.75;;;1.10;99.90;;;;;;5057431;28;20422;-63
2022/12/19 04:42:37;;;;;;;23.67;15.07;;;1.10;99.90;;;;;;5057291;28;20379;-62
2022/12/19 04:45:04;;;;;;;24.90;15.73;;;1.10;99.90;;;;;;5056900;28;20029;-67
2022/12/19 04:47:30;;;;;;;20.95;13.90;;;1.20;99.90;;;;;;5056965;28;20104;-66
2022/12/19 04:49:56;;;;;;;21.45;13.27;;;1.10;99.90;;;;;;5056912;28;20112;-65
2022/12/19 04:52:21;;;;;;;23.75;14.90;;;1.10;99.90;;;;;;5056883;28;20036;-62
2022/12/19 04:54:47;;;;;;;23.85;15.23;;;1.20;99.90;;;;;;5056895;28;20083;-66
2022/12/19 04:57:13;;;;;;;26.67;14.93;;;1.10;99.90;;;;;;5056841;28;20029;-63
2022/12/19 04:59:38;;;;;;;25.85;15.18;;;1.10;99.90;;;;;;5056503;28;20072;-66
2022/12/19 05:02:05;;;;;;;38.00;21.95;;;1.10;99.90;;;;;;5056680;28;20021;-65
2022/12/19 05:04:31;;;;;;;28.13;17.42;;;1.10;99.90;;;;;;5056634;28;20029;-62
2022/12/19 05:06:56;;;;;;;25.98;16.33;;;0.90;99.90;;;;;;5056499;28;20020;-63
2022/12/19 05:09:22;;;;;;;23.75;15.35;;;0.90;99.90;;;;;;5056618;28;20036;-65
2022/12/19 05:11:48;;;;;;;24.42;14.25;;;0.80;99.90;;;;;;5056686;28;20028;-67
2022/12/19 05:14:14;;;;;;;27.77;16.63;;;0.90;99.90;;;;;;5056180;28;20021;-62
2022/12/19 05:16:40;;;;;;;20.95;14.68;;;1.00;99.90;;;;;;5056429;28;20058;-65
2022/12/19 05:19:06;;;;;;;22.35;14.35;;;1.00;99.90;;;;;;5056041;28;20033;-60
2022/12/19 05:21:31;;;;;;;23.63;14.95;;;1.10;99.90;;;;;;5056248;28;20028;-64
2022/12/19 05:23:57;;;;;;;26.40;16.70;;;1.20;99.90;;;;;;5056314;28;20027;-62
2022/12/19 05:26:23;;;;;;;30.08;19.33;;;1.20;99.90;;;;;;5056184;28;20475;-65
2022/12/19 05:28:49;;;;;;;45.65;26.45;;;1.20;99.90;;;;;;5056153;28;20079;-65
2022/12/19 05:31:18;;;;;;;29.52;19.02;;;1.10;99.90;;;;;;5055994;28;20017;-63
2022/12/19 05:33:45;;;;;;;31.42;20.45;;;1.00;99.90;;;;;;5056321;28;20087;-65
2022/12/19 05:36:12;;;;;;;30.52;17.63;;;1.00;99.90;;;;;;5055681;28;20032;-63
2022/12/19 05:38:37;;;;;;;28.50;17.75;;;0.90;99.90;;;;;;5055951;28;20024;-64
2022/12/19 05:41:17;;;;;;;30.35;19.75;;;0.90;99.90;;;;;;5055887;28;20380;-68
2022/12/19 05:43:45;;;;;;;28.42;17.92;;;0.80;99.90;;;;;;5055880;28;20032;-64
2022/12/19 05:46:11;;;;;;;26.25;17.13;;;0.70;99.90;;;;;;5055251;28;20039;-65
2022/12/19 05:48:37;;;;;;;21.75;14.27;;;0.80;99.90;;;;;;5055815;28;20025;-66
2022/12/19 05:51:03;;;;;;;30.88;19.30;;;0.90;99.90;;;;;;5055464;28;20605;-62
2022/12/19 05:53:29;;;;;;;28.88;18.13;;;0.90;99.90;;;;;;5055234;28;20029;-63
2022/12/19 05:56:08;;;;;;;25.45;15.10;;;0.80;99.90;;;;;;5054151;28;20078;-65
2022/12/19 05:58:34;;;;;;;29.67;18.10;;;0.80;99.90;;;;;;5055464;28;20471;-65
2022/12/19 06:01:26;;;;;;;35.55;20.95;;;1.00;99.90;;;;;;5055420;28;20028;-67
2022/12/19 06:03:53;;;;;;;23.80;16.08;;;1.00;99.90;;;;;;5055086;28;20075;-64
2022/12/19 06:06:22;;;;;;;22.88;14.52;;;0.90;99.90;;;;;;5055535;28;20357;-61
2022/12/19 06:08:55;;;;;;;34.42;19.75;;;1.00;99.90;;;;;;5055387;28;20025;-66
2022/12/19 06:11:21;;;;;;;26.25;16.45;;;1.10;99.90;;;;;;5054809;28;20027;-64
2022/12/19 06:13:47;;;;;;;19.25;13.38;;;1.10;99.90;;;;;;5054815;28;20028;-66
2022/12/19 06:16:15;;;;;;;20.30;12.55;;;1.10;99.90;;;;;;5052850;28;20399;-65
2022/12/19 06:18:42;;;;;;;26.60;16.23;;;1.20;99.90;;;;;;5052997;28;20051;-65
2022/12/19 06:21:17;;;;;;;26.05;15.80;;;1.20;99.90;;;;;;5053422;28;20099;-63
2022/12/19 06:23:43;;;;;;;32.55;19.73;;;1.20;99.90;;;;;;5055085;28;20444;-63
2022/12/19 06:26:11;;;;;;;34.75;21.50;;;1.20;99.90;;;;;;5054625;28;20478;-63
2022/12/19 06:28:36;;;;;;;31.40;19.50;;;0.90;99.90;;;;;;5055062;28;20029;-65
2022/12/19 06:31:04;;;;;;;29.15;17.92;;;0.80;99.90;;;;;;5055122;28;20025;-63
2022/12/19 06:33:30;;;;;;;47.05;26.73;;;0.90;99.90;;;;;;5053300;28;20025;-64
2022/12/19 06:36:06;;;;;;;46.83;28.75;;;0.80;99.90;;;;;;5053244;28;20029;-65
2022/12/19 06:38:33;;;;;;;48.67;28.25;;;0.70;99.90;;;;;;5053533;28;20025;-67
2022/12/19 06:43:43;;;;;;;49.40;27.48;;;0.60;99.90;;;;;;5053775;28;20091;-64
2022/12/19 06:46:09;;;;;;;37.45;23.00;;;0.40;99.90;;;;;;5054565;28;20454;-61
2022/12/19 06:48:35;;;;;;;36.08;22.05;;;0.40;99.90;;;;;;5053293;28;20457;-62
2022/12/19 06:51:01;;;;;;;38.22;22.27;;;0.60;99.90;;;;;;5052688;28;20013;-63
2022/12/19 06:53:27;;;;;;;31.70;20.00;;;0.80;99.90;;;;;;5052261;28;20017;-64
2022/12/19 06:55:55;;;;;;;27.05;16.98;;;0.80;99.90;;;;;;5052389;28;20530;-64
2022/12/19 06:58:21;;;;;;;27.30;17.20;;;0.80;99.90;;;;;;5051534;28;20029;-60
2022/12/19 07:00:47;;;;;;;22.98;15.05;;;0.70;99.90;;;;;;5052326;28;20036;-63
2022/12/19 07:03:16;;;;;;;32.28;19.25;;;0.60;99.90;;;;;;5053845;28;20116;-63
2022/12/19 07:05:42;;;;;;;32.63;19.48;;;0.80;99.90;;;;;;5043663;28;20486;-63
2022/12/19 07:08:13;;;;;;;32.30;20.10;;;0.80;99.90;;;;;;5040616;28;20030;-65
2022/12/19 07:10:40;;;;;;;27.52;17.52;;;0.80;99.90;;;;;;5037802;28;20490;-62
2022/12/19 07:13:06;;;;;;;35.72;21.92;;;0.80;99.90;;;;;;5044626;28;20014;-62
2022/12/19 07:15:33;;;;;;;29.35;19.42;;;0.80;99.90;;;;;;5040120;28;20028;-62
2022/12/19 07:18:00;;;;;;;30.70;19.75;;;0.70;99.90;;;;;;5041604;28;20045;-64
2022/12/19 07:20:28;;;;;;;33.65;20.58;;;0.70;99.90;;;;;;5041591;28;20028;-66
2022/12/19 07:22:54;;;;;;;33.83;18.33;;;0.80;99.90;;;;;;5043397;28;20020;-66
2022/12/19 07:25:20;;;;;;;26.15;17.17;;;0.90;99.90;;;;;;5040897;28;20032;-64
2022/12/19 07:27:46;;;;;;;27.88;16.90;;;1.00;99.90;;;;;;5034016;28;20074;-62
2022/12/19 07:30:12;;;;;;;31.20;19.63;;;1.10;99.90;;;;;;5037468;28;20506;-63
2022/12/19 07:32:43;;;;;;;34.05;21.52;;;1.00;99.90;;;;;;5040547;28;20013;-65
2022/12/19 07:35:10;;;;;;;51.33;30.13;;;1.00;99.90;;;;;;5043969;28;20029;-63
2022/12/19 07:37:37;;;;;;;43.03;26.77;;;1.10;99.90;;;;;;5042398;28;20056;-69
2022/12/19 07:40:10;;;;;;;45.55;26.73;;;1.10;99.90;;;;;;5042493;28;20467;-62
2022/12/19 07:42:38;;;;;;;34.72;23.15;;;1.10;99.90;;;;;;5038151;28;20033;-66
2022/12/19 07:45:04;;;;;;;33.55;22.38;;;1.20;99.90;;;;;;5038612;28;20057;-65
2022/12/19 07:47:30;;;;;;;39.50;25.38;;;1.40;99.90;;;;;;5034608;28;20028;-65
2022/12/19 07:49:56;;;;;;;42.95;28.73;;;1.50;99.90;;;;;;5037122;28;20511;-67
2022/12/19 07:52:22;;;;;;;47.22;27.35;;;1.40;99.90;;;;;;5046985;28;20091;-66
2022/12/19 07:54:47;;;;;;;36.80;22.95;;;1.30;99.90;;;;;;5043254;28;20394;-64
2022/12/19 07:57:16;;;;;;;35.13;22.65;;;1.50;99.90;;;;;;5042906;28;20032;-62
2022/12/19 07:59:45;;;;;;;31.40;20.75;;;1.60;99.90;;;;;;5040764;28;20151;-67
2022/12/19 08:02:11;;;;;;;34.95;21.77;;;1.50;99.90;;;;;;5028016;28;20053;-61
2022/12/19 08:04:37;;;;;;;62.83;36.97;;;1.60;99.90;;;;;;5034213;28;20043;-67
2022/12/19 08:07:03;;;;;;;36.40;22.55;;;1.70;99.90;;;;;;5036763;28;20083;-69
2022/12/19 08:09:29;;;;;;;35.95;22.80;;;1.80;99.90;;;;;;5033900;28;20127;-63
2022/12/19 08:11:57;;;;;;;36.45;21.17;;;1.90;99.90;;;;;;5033421;28;20083;-67
2022/12/19 08:14:23;;;;;;;36.55;22.75;;;2.10;99.90;;;;;;5032942;28;20033;-67
2022/12/19 08:16:48;;;;;;;34.42;22.73;;;2.20;99.90;;;;;;5033766;28;20446;-63
2022/12/19 08:19:14;;;;;;;29.23;19.33;;;2.30;99.90;;;;;;5034694;28;20050;-67
2022/12/19 08:21:41;;;;;;;40.30;24.40;;;2.30;99.90;;;;;;5034481;28;20049;-65
2022/12/19 08:24:12;;;;;;;46.15;29.00;;;2.20;99.90;;;;;;5034184;28;20032;-64
2022/12/19 08:26:40;;;;;;;35.13;23.77;;;2.00;99.90;;;;;;5034168;28;20026;-69
2022/12/19 08:29:06;;;;;;;33.42;21.38;;;2.00;99.90;;;;;;5034025;28;20499;-67
2022/12/19 08:31:32;;;;;;;31.17;21.02;;;2.00;99.90;;;;;;5034665;28;20061;-62
2022/12/19 08:33:58;;;;;;;32.35;20.95;;;2.10;99.90;;;;;;5037891;28;20472;-65
2022/12/19 08:36:24;;;;;;;29.23;18.52;;;2.20;99.90;;;;;;5035084;28;20025;-66
2022/12/19 08:38:50;;;;;;;30.60;20.30;;;2.20;99.90;;;;;;5040688;28;20022;-69
2022/12/19 08:41:16;;;;;;;37.53;25.27;;;2.30;99.90;;;;;;5046022;28;20079;-64
2022/12/19 08:43:47;;;;;;;30.55;21.45;;;2.20;99.90;;;;;;5037787;28;20030;-64
2022/12/19 08:46:13;;;;;;;26.45;18.40;;;2.10;99.90;;;;;;5046576;28;20063;-68
2022/12/19 08:48:39;;;;;;;33.78;22.15;;;2.20;99.90;;;;;;5040983;28;20042;-66
2022/12/19 08:51:07;;;;;;;36.78;23.45;;;2.30;99.90;;;;;;5041556;28;20064;-62
2022/12/19 08:53:35;;;;;;;30.20;20.50;;;2.30;99.90;;;;;;5041508;28;20106;-63
2022/12/19 08:56:09;;;;;;;32.17;21.83;;;2.20;99.90;;;;;;5038374;28;20036;-61
2022/12/19 08:58:35;;;;;;;29.98;20.00;;;2.20;99.90;;;;;;5045190;28;20040;-67
2022/12/19 09:01:04;;;;;;;25.52;17.63;;;2.30;99.90;;;;;;5046383;28;20068;-66
2022/12/19 09:03:31;;;;;;;30.90;20.55;;;2.50;99.90;;;;;;5033260;28;20022;-65
2022/12/19 09:06:09;;;;;;;30.80;20.33;;;2.70;99.90;;;;;;5038571;28;20025;-64
2022/12/19 09:08:36;;;;;;;29.90;20.10;;;2.70;99.90;;;;;;5044718;28;20041;-63
2022/12/19 09:11:11;;;;;;;27.08;18.45;;;2.80;99.90;;;;;;5034216;28;20112;-61
2022/12/19 09:13:38;;;;;;;30.98;20.05;;;3.00;99.90;;;;;;5045009;28;20032;-66
2022/12/19 09:16:15;;;;;;;26.92;18.02;;;3.10;99.90;;;;;;5038039;28;20026;-65
2022/12/19 09:18:43;;;;;;;26.88;19.20;;;3.20;99.90;;;;;;5044706;28;20144;-71
2022/12/19 09:21:25;;;;;;;27.23;19.30;;;3.40;99.90;;;;;;5056283;28;20028;-62
2022/12/19 09:23:53;;;;;;;26.13;19.25;;;3.70;99.90;;;;;;5045168;28;20079;-68
2022/12/19 09:26:21;;;;;;;28.55;19.75;;;3.90;99.90;;;;;;5044020;28;20033;-70
2022/12/19 09:28:47;;;;;;;29.35;21.08;;;4.00;99.90;;;;;;5037152;28;20025;-62
2022/12/19 09:31:24;;;;;;;32.05;22.30;;;4.00;99.90;;;;;;5043687;28;20055;-66
2022/12/19 09:33:51;;;;;;;28.98;19.83;;;4.10;99.90;;;;;;5045828;28;20025;-69
2022/12/19 09:36:22;;;;;;;31.75;22.45;;;4.10;99.90;;;;;;5047949;28;20124;-64
2022/12/19 09:38:48;;;;;;;25.17;19.33;;;4.00;99.90;;;;;;5036595;28;20032;-67
2022/12/19 09:41:32;;;;;;;25.38;18.10;;;4.00;99.90;;;;;;5037215;28;20046;-63
2022/12/19 09:44:28;;;;;;;25.73;17.73;;;4.10;99.90;;;;;;5049759;28;20494;-59
2022/12/19 09:47:09;;;;;;;23.08;15.52;;;4.10;99.90;;;;;;5050094;28;20447;-64
2022/12/19 09:49:38;;;;;;;20.88;14.43;;;4.20;99.90;;;;;;5040246;28;20120;-63
2022/12/19 09:52:24;;;;;;;18.45;12.85;;;4.30;99.90;;;;;;5041039;28;20029;-63
2022/12/19 09:55:03;;;;;;;16.27;12.93;;;4.40;99.90;;;;;;5040357;28;20144;-65
2022/12/19 09:57:56;;;;;;;18.88;13.10;;;4.50;99.90;;;;;;5037416;28;20339;-63
2022/12/19 10:00:52;;;;;;;23.90;17.17;;;4.50;99.90;;;;;;5033195;28;20441;-61
2022/12/19 10:03:40;;;;;;;17.23;12.43;;;4.40;99.90;;;;;;5036047;28;20035;-64
2022/12/19 10:06:30;;;;;;;17.88;12.93;;;4.40;99.90;;;;;;5037226;28;20031;-67
2022/12/19 10:09:10;;;;;;;17.65;12.77;;;4.50;99.90;;;;;;5039745;28;20117;-67
2022/12/19 10:11:57;;;;;;;17.80;12.57;;;4.60;99.90;;;;;;5036602;28;20033;-66
2022/12/19 10:14:42;;;;;;;25.10;17.73;;;4.60;99.90;;;;;;5035797;28;20057;-67
2022/12/19 10:17:27;;;;;;;23.73;17.52;;;4.50;99.90;;;;;;5039584;28;20036;-66
2022/12/19 10:20:13;;;;;;;20.05;14.05;;;4.50;99.90;;;;;;5044744;28;20028;-64
2022/12/19 10:23:01;;;;;;;19.08;13.40;;;4.70;99.90;;;;;;5041774;28;20042;-62
2022/12/19 10:25:55;;;;;;;23.50;16.73;;;4.90;99.90;;;;;;5042606;28;20021;-65
2022/12/19 10:28:55;;;;;;;22.15;17.42;;;5.20;99.90;;;;;;5041521;28;20408;-63
2022/12/19 10:31:49;;;;;;;19.33;14.23;;;5.30;99.90;;;;;;5042216;28;20078;-64
2022/12/19 10:34:19;;;;;;;20.13;14.73;;;5.40;99.90;;;;;;5044081;28;20363;-62
2022/12/19 10:36:50;;;;;;;23.55;17.02;;;5.70;99.90;;;;;;5039132;28;20013;-68
2022/12/19 10:39:22;;;;;;;24.63;17.88;;;5.90;99.90;;;;;;5062297;28;20027;-70
2022/12/19 10:41:53;;;;;;;25.67;18.10;;;5.90;99.90;;;;;;5049426;28;20071;-64
2022/12/19 10:44:21;;;;;;;22.83;17.35;;;6.00;99.90;;;;;;5048065;28;20029;-62
2022/12/19 10:46:49;;;;;;;21.70;16.27;;;6.10;99.90;;;;;;5049062;28;20043;-65
2022/12/19 10:49:17;;;;;;;23.23;17.65;;;6.30;99.90;;;;;;5050765;28;20056;-70
2022/12/19 10:51:55;;;;;;;21.73;16.48;;;6.30;99.90;;;;;;5048905;28;20033;-62
2022/12/19 10:54:25;;;;;;;19.90;16.17;;;6.40;99.90;;;;;;5048960;28;20052;-66
2022/12/19 10:56:51;;;;;;;21.17;15.98;;;6.60;99.90;;;;;;5047870;28;20021;-65
2022/12/19 10:59:19;;;;;;;18.05;14.63;;;6.90;99.90;;;;;;5048936;28;20104;-64
2022/12/19 11:01:47;;;;;;;20.85;15.00;;;7.00;99.90;;;;;;5039972;28;20021;-63
2022/12/19 11:04:33;;;;;;;23.55;16.70;;;7.00;99.90;;;;;;5039902;28;20029;-69
2022/12/19 11:07:01;;;;;;;18.13;14.10;;;7.10;99.90;;;;;;5037851;28;20021;-62
2022/12/19 11:09:38;;;;;;;20.10;15.32;;;7.10;99.90;;;;;;5031102;28;20026;-68
2022/12/19 11:12:07;;;;;;;33.60;24.40;;;7.10;99.90;;;;;;5030054;28;20702;-65
2022/12/19 11:14:35;;;;;;;25.88;19.77;;;6.60;99.90;;;;;;5033342;28;20072;-64
2022/12/19 11:17:01;;;;;;;27.55;19.33;;;6.50;99.90;;;;;;5035772;28;20048;-65
2022/12/19 11:19:36;;;;;;;27.20;18.95;;;6.80;99.90;;;;;;5042436;28;20091;-64
2022/12/19 11:22:24;;;;;;;26.15;17.50;;;6.70;99.90;;;;;;5038902;28;20021;-64
2022/12/19 11:24:52;;;;;;;20.45;15.75;;;6.70;99.90;;;;;;5044511;28;20031;-64
2022/12/19 11:27:37;;;;;;;22.98;17.70;;;6.80;99.90;;;;;;5034395;28;20490;-66
2022/12/19 11:30:27;;;;;;;28.98;21.65;;;6.90;99.90;;;;;;5031740;28;20037;-63
2022/12/19 11:33:07;;;;;;;29.17;21.70;;;7.10;99.90;;;;;;5031551;28;20476;-63
2022/12/19 11:35:50;;;;;;;29.98;21.98;;;7.10;99.90;;;;;;5031580;28;20033;-65
2022/12/19 11:38:51;;;;;;;30.17;21.85;;;7.10;99.90;;;;;;5046026;28;20021;-66
2022/12/19 11:41:34;;;;;;;31.42;23.40;;;7.10;99.90;;;;;;5031863;28;20041;-66
2022/12/19 11:44:16;;;;;;;29.38;22.55;;;7.20;99.90;;;;;;5030316;28;20026;-62
2022/12/19 11:46:52;;;;;;;34.85;26.20;;;7.10;99.90;;;;;;5031320;28;20498;-69
2022/12/19 11:49:43;;;;;;;32.17;22.77;;;6.60;99.90;;;;;;5031594;28;20488;-66
2022/12/19 11:52:32;;;;;;;30.05;21.67;;;6.30;99.90;;;;;;5032819;28;20029;-66
2022/12/19 11:55:09;;;;;;;32.60;22.63;;;6.10;99.90;;;;;;5036722;28;20383;-64
2022/12/19 11:57:37;;;;;;;29.40;21.83;;;6.10;99.90;;;;;;5042365;28;20384;-63
2022/12/19 12:00:03;;;;;;;29.30;20.95;;;6.30;99.90;;;;;;5041582;28;20072;-69
2022/12/19 12:02:54;;;;;;;28.02;21.25;;;6.50;99.90;;;;;;5041291;28;20021;-65
2022/12/19 12:05:39;;;;;;;26.83;20.27;;;6.50;99.90;;;;;;5041220;28;20444;-67
2022/12/19 12:08:38;;;;;;;26.67;20.17;;;6.50;99.90;;;;;;5040427;28;20375;-71
2022/12/19 12:11:24;;;;;;;32.17;24.00;;;6.60;99.90;;;;;;5035281;28;20029;-68
2022/12/19 12:13:59;;;;;;;27.27;21.02;;;6.40;99.90;;;;;;5033056;28;20493;-69
2022/12/19 12:16:38;;;;;;;34.28;25.08;;;6.30;99.90;;;;;;5032785;28;20022;-67
2022/12/19 12:19:51;;;;;;;32.55;24.58;;;6.20;99.90;;;;;;5030980;28;20048;-65
2022/12/19 12:22:20;;;;;;;29.83;22.13;;;6.10;99.90;;;;;;5045327;28;20074;-68
2022/12/19 12:24:54;;;;;;;34.00;24.85;;;6.10;99.90;;;;;;5030686;28;20029;-65
2022/12/19 12:27:42;;;;;;;31.35;23.20;;;6.20;99.90;;;;;;5030117;28;20075;-62
2022/12/19 12:30:11;;;;;;;27.17;21.52;;;6.10;99.90;;;;;;5029673;28;20040;-63
2022/12/19 12:33:04;;;;;;;27.05;19.88;;;6.10;99.90;;;;;;5031309;28;20029;-62
2022/12/19 12:35:36;;;;;;;27.27;20.17;;;6.30;99.90;;;;;;5032160;28;20185;-64
2022/12/19 12:38:43;;;;;;;31.27;22.20;;;6.50;99.90;;;;;;5038784;28;20017;-64
2022/12/19 12:44:21;;;;;;;29.17;21.77;;;6.50;99.90;;;;;;5049155;28;20336;-65
2022/12/19 12:47:00;;;;;;;33.70;24.52;;;6.40;99.90;;;;;;5049231;28;20035;-67
2022/12/19 12:49:31;;;;;;;44.20;31.67;;;6.30;99.90;;;;;;5048771;28;20029;-66
2022/12/19 12:51:59;;;;;;;31.23;25.33;;;6.20;99.90;;;;;;5050258;28;20032;-63
2022/12/19 12:54:31;;;;;;;36.55;26.45;;;6.20;99.90;;;;;;5050831;28;20074;-66
2022/12/19 12:56:57;;;;;;;29.48;23.20;;;6.20;99.90;;;;;;5054456;28;20020;-65
2022/12/19 12:59:26;;;;;;;35.03;25.98;;;6.10;99.90;;;;;;5054654;28;20020;-66
2022/12/19 13:01:55;;;;;;;42.22;28.33;;;6.00;99.90;;;;;;5054267;28;20028;-62
2022/12/19 13:04:32;;;;;;;32.08;24.85;;;5.90;99.90;;;;;;5054820;28;20025;-65
2022/12/19 13:07:50;;;;;;;40.08;27.83;;;5.80;99.90;;;;;;5074214;28;20020;-65
2022/12/19 13:10:23;;;;;;;49.15;33.20;;;5.80;99.90;;;;;;5072475;28;20463;-63
2022/12/19 13:12:59;;;;;;;;;;;5.90;99.90;;;;;;5075864;28;20534;-64